sensor_id;sensor_type;location;lat;lon;timestamp;P1;P4;P2;P0;N10;N4;N25;N1;N05;TS
43196;SPS30;28816;49.852;18.282;2023-11-21T00:02:10;5.390000;;5.420000;5.040000;;;;;;
43196;SPS30;28816;49.852;18.282;2023-11-21T00:07:11;6.290000;;6.230000;5.930000;;;;;;
43196;SPS30;28816;49.852;18.282;2023-11-21T00:12:14;5.560000;;5.540000;5.270000;;;;;;
43196;SPS30;28816;49.852;18.282;2023-11-21T00:17:16;5.830000;;5.830000;5.450000;;;;;;
43196;SPS30;28816;49.852;18.282;2023-11-21T00:22:18;5.900000;;5.880000;5.620000;;;;;;
43196;SPS30;28816;49.852;18.282;2023-11-21T00:27:20;5.370000;;5.310000;5.040000;;;;;;
43196;SPS30;28816;49.852;18.282;2023-11-21T00:32:22;5.940000;;5.940000;5.590000;;;;;;
43196;SPS30;28816;49.852;18.282;2023-11-21T00:37:24;6.120000;;6.100000;5.790000;;;;;;
43196;SPS30;28816;49.852;18.282;2023-11-21T00:42:26;6.360000;;6.350000;5.940000;;;;;;
43196;SPS30;28816;49.852;18.282;2023-11-21T00:47:28;5.010000;;5.000000;4.740000;;;;;;
43196;SPS30;28816;49.852;18.282;2023-11-21T00:52:30;5.010000;;5.000000;4.730000;;;;;;
43196;SPS30;28816;49.852;18.282;2023-11-21T00:57:32;6.620000;;6.500000;6.230000;;;;;;
43196;SPS30;28816;49.852;18.282;2023-11-21T01:02:34;5.770000;;5.790000;5.350000;;;;;;
43196;SPS30;28816;49.852;18.282;2023-11-21T01:07:36;5.340000;;5.330000;4.900000;;;;;;
43196;SPS30;28816;49.852;18.282;2023-11-21T01:12:38;6.420000;;6.380000;5.960000;;;;;;
43196;SPS30;28816;49.852;18.282;2023-11-21T01:17:40;6.080000;;5.940000;5.510000;;;;;;
43196;SPS30;28816;49.852;18.282;2023-11-21T01:22:43;5.430000;;5.430000;5.050000;;;;;;
43196;SPS30;28816;49.852;18.282;2023-11-21T01:27:45;4.660000;;4.660000;4.330000;;;;;;
43196;SPS30;28816;49.852;18.282;2023-11-21T01:32:48;5.160000;;5.090000;4.870000;;;;;;
43196;SPS30;28816;49.852;18.282;2023-11-21T01:37:50;4.890000;;4.860000;4.650000;;;;;;
43196;SPS30;28816;49.852;18.282;2023-11-21T01:42:51;4.810000;;4.790000;4.520000;;;;;;
43196;SPS30;28816;49.852;18.282;2023-11-21T01:47:53;4.870000;;4.780000;4.560000;;;;;;
43196;SPS30;28816;49.852;18.282;2023-11-21T01:52:56;5.240000;;5.170000;4.900000;;;;;;
43196;SPS30;28816;49.852;18.282;2023-11-21T01:57:57;5.340000;;5.270000;5.050000;;;;;;
43196;SPS30;28816;49.852;18.282;2023-11-21T02:03:00;5.200000;;5.220000;4.860000;;;;;;
43196;SPS30;28816;49.852;18.282;2023-11-21T02:08:02;5.880000;;5.880000;5.520000;;;;;;
43196;SPS30;28816;49.852;18.282;2023-11-21T02:13:04;5.140000;;5.100000;4.850000;;;;;;
43196;SPS30;28816;49.852;18.282;2023-11-21T02:18:06;4.910000;;4.900000;4.530000;;;;;;
43196;SPS30;28816;49.852;18.282;2023-11-21T02:23:09;4.660000;;4.690000;4.390000;;;;;;
43196;SPS30;28816;49.852;18.282;2023-11-21T02:28:11;5.280000;;5.320000;4.960000;;;;;;
43196;SPS30;28816;49.852;18.282;2023-11-21T02:33:14;4.870000;;4.920000;4.600000;;;;;;
43196;SPS30;28816;49.852;18.282;2023-11-21T02:38:16;5.170000;;5.180000;4.850000;;;;;;
43196;SPS30;28816;49.852;18.282;2023-11-21T02:43:18;5.430000;;5.450000;5.070000;;;;;;
43196;SPS30;28816;49.852;18.282;2023-11-21T02:48:20;4.760000;;4.750000;4.510000;;;;;;
43196;SPS30;28816;49.852;18.282;2023-11-21T02:53:22;5.370000;;5.250000;5.060000;;;;;;
43196;SPS30;28816;49.852;18.282;2023-11-21T02:58:23;5.710000;;5.660000;5.410000;;;;;;
43196;SPS30;28816;49.852;18.282;2023-11-21T03:03:25;5.650000;;5.650000;5.270000;;;;;;
43196;SPS30;28816;49.852;18.282;2023-11-21T03:08:27;5.000000;;4.990000;4.730000;;;;;;
43196;SPS30;28816;49.852;18.282;2023-11-21T03:13:29;6.260000;;6.220000;5.980000;;;;;;
43196;SPS30;28816;49.852;18.282;2023-11-21T03:18:31;5.940000;;5.900000;5.600000;;;;;;
43196;SPS30;28816;49.852;18.282;2023-11-21T03:23:33;5.420000;;5.350000;5.170000;;;;;;
43196;SPS30;28816;49.852;18.282;2023-11-21T03:28:34;6.000000;;5.950000;5.700000;;;;;;
43196;SPS30;28816;49.852;18.282;2023-11-21T03:33:36;6.540000;;6.560000;6.150000;;;;;;
43196;SPS30;28816;49.852;18.282;2023-11-21T03:38:39;5.920000;;5.830000;5.640000;;;;;;
43196;SPS30;28816;49.852;18.282;2023-11-21T03:43:41;6.270000;;6.260000;5.900000;;;;;;
43196;SPS30;28816;49.852;18.282;2023-11-21T03:48:44;6.060000;;6.110000;5.670000;;;;;;
43196;SPS30;28816;49.852;18.282;2023-11-21T03:53:45;6.350000;;6.360000;6.010000;;;;;;
43196;SPS30;28816;49.852;18.282;2023-11-21T03:58:48;6.320000;;6.280000;6.000000;;;;;;
43196;SPS30;28816;49.852;18.282;2023-11-21T04:03:50;7.310000;;7.320000;6.930000;;;;;;
43196;SPS30;28816;49.852;18.282;2023-11-21T04:08:51;5.670000;;5.640000;5.250000;;;;;;
43196;SPS30;28816;49.852;18.282;2023-11-21T04:13:54;6.460000;;6.440000;6.060000;;;;;;
43196;SPS30;28816;49.852;18.282;2023-11-21T04:18:56;7.100000;;6.990000;6.610000;;;;;;
43196;SPS30;28816;49.852;18.282;2023-11-21T04:23:58;6.800000;;6.730000;6.450000;;;;;;
43196;SPS30;28816;49.852;18.282;2023-11-21T04:29:00;6.260000;;6.260000;5.760000;;;;;;
43196;SPS30;28816;49.852;18.282;2023-11-21T04:34:02;5.930000;;5.960000;5.590000;;;;;;
43196;SPS30;28816;49.852;18.282;2023-11-21T04:39:04;6.470000;;6.430000;6.120000;;;;;;
43196;SPS30;28816;49.852;18.282;2023-11-21T04:44:05;7.430000;;7.360000;7.050000;;;;;;
43196;SPS30;28816;49.852;18.282;2023-11-21T04:49:07;7.450000;;7.440000;7.040000;;;;;;
43196;SPS30;28816;49.852;18.282;2023-11-21T04:54:09;6.830000;;6.820000;6.410000;;;;;;
43196;SPS30;28816;49.852;18.282;2023-11-21T04:59:11;6.510000;;6.490000;6.100000;;;;;;
43196;SPS30;28816;49.852;18.282;2023-11-21T05:04:13;6.140000;;6.120000;5.840000;;;;;;
43196;SPS30;28816;49.852;18.282;2023-11-21T05:09:16;5.380000;;5.390000;5.010000;;;;;;
43196;SPS30;28816;49.852;18.282;2023-11-21T05:14:18;5.640000;;5.600000;5.370000;;;;;;
43196;SPS30;28816;49.852;18.282;2023-11-21T05:19:20;5.970000;;5.970000;5.640000;;;;;;
43196;SPS30;28816;49.852;18.282;2023-11-21T05:24:22;5.710000;;5.690000;5.280000;;;;;;
43196;SPS30;28816;49.852;18.282;2023-11-21T05:29:24;6.690000;;6.750000;6.270000;;;;;;
43196;SPS30;28816;49.852;18.282;2023-11-21T05:34:25;6.110000;;6.110000;5.750000;;;;;;
43196;SPS30;28816;49.852;18.282;2023-11-21T05:39:27;6.640000;;6.690000;6.220000;;;;;;
43196;SPS30;28816;49.852;18.282;2023-11-21T05:44:29;6.220000;;6.270000;5.880000;;;;;;
43196;SPS30;28816;49.852;18.282;2023-11-21T05:49:31;5.520000;;5.500000;5.260000;;;;;;
43196;SPS30;28816;49.852;18.282;2023-11-21T05:54:33;6.950000;;7.000000;6.580000;;;;;;
43196;SPS30;28816;49.852;18.282;2023-11-21T05:59:35;6.390000;;6.330000;6.080000;;;;;;
43196;SPS30;28816;49.852;18.282;2023-11-21T06:04:37;7.290000;;7.210000;6.750000;;;;;;
43196;SPS30;28816;49.852;18.282;2023-11-21T06:09:38;7.530000;;7.480000;7.140000;;;;;;
43196;SPS30;28816;49.852;18.282;2023-11-21T06:14:40;7.940000;;7.900000;7.570000;;;;;;
43196;SPS30;28816;49.852;18.282;2023-11-21T06:19:42;8.660000;;8.720000;8.140000;;;;;;
43196;SPS30;28816;49.852;18.282;2023-11-21T06:24:44;9.640000;;9.530000;9.160000;;;;;;
43196;SPS30;28816;49.852;18.282;2023-11-21T06:29:46;8.550000;;8.630000;8.060000;;;;;;
43196;SPS30;28816;49.852;18.282;2023-11-21T06:34:49;7.660000;;7.640000;7.200000;;;;;;
43196;SPS30;28816;49.852;18.282;2023-11-21T06:39:50;8.340000;;8.320000;7.860000;;;;;;
43196;SPS30;28816;49.852;18.282;2023-11-21T06:44:52;11.240000;;11.100000;10.570000;;;;;;
43196;SPS30;28816;49.852;18.282;2023-11-21T06:49:54;12.040000;;12.070000;11.250000;;;;;;
43196;SPS30;28816;49.852;18.282;2023-11-21T06:54:56;10.490000;;10.490000;9.820000;;;;;;
43196;SPS30;28816;49.852;18.282;2023-11-21T06:59:59;10.050000;;10.040000;9.490000;;;;;;
43196;SPS30;28816;49.852;18.282;2023-11-21T07:05:02;10.710000;;10.710000;10.100000;;;;;;
43196;SPS30;28816;49.852;18.282;2023-11-21T07:10:04;11.360000;;11.340000;10.770000;;;;;;
43196;SPS30;28816;49.852;18.282;2023-11-21T07:15:06;11.620000;;11.650000;10.930000;;;;;;
43196;SPS30;28816;49.852;18.282;2023-11-21T07:20:10;10.530000;;10.510000;9.870000;;;;;;
43196;SPS30;28816;49.852;18.282;2023-11-21T07:25:12;11.150000;;11.250000;10.490000;;;;;;
43196;SPS30;28816;49.852;18.282;2023-11-21T07:30:14;8.540000;;8.530000;8.010000;;;;;;
43196;SPS30;28816;49.852;18.282;2023-11-21T07:35:17;7.250000;;7.310000;6.800000;;;;;;
43196;SPS30;28816;49.852;18.282;2023-11-21T07:40:19;7.470000;;7.570000;6.990000;;;;;;
43196;SPS30;28816;49.852;18.282;2023-11-21T07:45:21;7.450000;;7.480000;7.020000;;;;;;
43196;SPS30;28816;49.852;18.282;2023-11-21T07:50:23;6.930000;;6.900000;6.580000;;;;;;
43196;SPS30;28816;49.852;18.282;2023-11-21T07:55:25;6.400000;;6.390000;6.060000;;;;;;
43196;SPS30;28816;49.852;18.282;2023-11-21T08:00:27;7.170000;;7.200000;6.760000;;;;;;
43196;SPS30;28816;49.852;18.282;2023-11-21T08:05:29;7.870000;;7.880000;7.420000;;;;;;
43196;SPS30;28816;49.852;18.282;2023-11-21T08:10:31;8.030000;;7.990000;7.540000;;;;;;
43196;SPS30;28816;49.852;18.282;2023-11-21T08:15:34;10.720000;;10.750000;10.030000;;;;;;
43196;SPS30;28816;49.852;18.282;2023-11-21T08:20:37;8.140000;;8.080000;7.710000;;;;;;
43196;SPS30;28816;49.852;18.282;2023-11-21T08:25:38;7.610000;;7.650000;7.190000;;;;;;
43196;SPS30;28816;49.852;18.282;2023-11-21T08:30:41;7.050000;;7.010000;6.720000;;;;;;
43196;SPS30;28816;49.852;18.282;2023-11-21T08:35:43;6.430000;;6.350000;6.140000;;;;;;
43196;SPS30;28816;49.852;18.282;2023-11-21T08:40:45;7.040000;;7.000000;6.670000;;;;;;
43196;SPS30;28816;49.852;18.282;2023-11-21T08:45:48;7.430000;;7.440000;6.980000;;;;;;
43196;SPS30;28816;49.852;18.282;2023-11-21T08:50:50;7.750000;;7.750000;7.280000;;;;;;
43196;SPS30;28816;49.852;18.282;2023-11-21T08:55:51;7.600000;;7.570000;7.210000;;;;;;
43196;SPS30;28816;49.852;18.282;2023-11-21T09:00:54;8.620000;;8.610000;8.140000;;;;;;
43196;SPS30;28816;49.852;18.282;2023-11-21T09:05:56;10.050000;;10.140000;9.420000;;;;;;
43196;SPS30;28816;49.852;18.282;2023-11-21T09:10:58;9.400000;;9.370000;8.910000;;;;;;
43196;SPS30;28816;49.852;18.282;2023-11-21T09:16:00;10.640000;;10.590000;9.870000;;;;;;
43196;SPS30;28816;49.852;18.282;2023-11-21T09:21:02;9.110000;;9.150000;8.530000;;;;;;
43196;SPS30;28816;49.852;18.282;2023-11-21T09:26:04;9.600000;;9.510000;9.050000;;;;;;
43196;SPS30;28816;49.852;18.282;2023-11-21T09:31:06;9.530000;;9.510000;9.040000;;;;;;
43196;SPS30;28816;49.852;18.282;2023-11-21T09:36:08;9.100000;;9.090000;8.630000;;;;;;
43196;SPS30;28816;49.852;18.282;2023-11-21T09:41:11;10.290000;;10.270000;9.740000;;;;;;
43196;SPS30;28816;49.852;18.282;2023-11-21T09:46:20;10.000000;;9.970000;9.460000;;;;;;
43196;SPS30;28816;49.852;18.282;2023-11-21T09:51:23;10.850000;;10.830000;10.250000;;;;;;
43196;SPS30;28816;49.852;18.282;2023-11-21T09:56:26;11.570000;;11.610000;10.700000;;;;;;
43196;SPS30;28816;49.852;18.282;2023-11-21T10:01:29;11.190000;;11.090000;10.600000;;;;;;
43196;SPS30;28816;49.852;18.282;2023-11-21T10:06:31;10.110000;;10.150000;9.520000;;;;;;
43196;SPS30;28816;49.852;18.282;2023-11-21T10:11:33;9.920000;;9.860000;9.380000;;;;;;
43196;SPS30;28816;49.852;18.282;2023-11-21T10:16:36;8.960000;;8.910000;8.280000;;;;;;
43196;SPS30;28816;49.852;18.282;2023-11-21T10:21:38;11.020000;;10.970000;10.350000;;;;;;
43196;SPS30;28816;49.852;18.282;2023-11-21T10:26:40;11.690000;;11.660000;10.970000;;;;;;
43196;SPS30;28816;49.852;18.282;2023-11-21T10:31:42;10.870000;;10.830000;10.270000;;;;;;
43196;SPS30;28816;49.852;18.282;2023-11-21T10:36:44;9.860000;;9.920000;9.330000;;;;;;
43196;SPS30;28816;49.852;18.282;2023-11-21T10:41:46;11.440000;;11.440000;10.830000;;;;;;
43196;SPS30;28816;49.852;18.282;2023-11-21T10:46:49;9.130000;;9.190000;8.550000;;;;;;
43196;SPS30;28816;49.852;18.282;2023-11-21T10:51:52;7.730000;;7.660000;7.360000;;;;;;
43196;SPS30;28816;49.852;18.282;2023-11-21T10:56:55;9.160000;;9.100000;8.700000;;;;;;
43196;SPS30;28816;49.852;18.282;2023-11-21T11:01:59;9.040000;;9.030000;8.440000;;;;;;
43196;SPS30;28816;49.852;18.282;2023-11-21T11:07:06;9.380000;;9.290000;8.930000;;;;;;
43196;SPS30;28816;49.852;18.282;2023-11-21T11:12:10;8.700000;;8.570000;8.200000;;;;;;
43196;SPS30;28816;49.852;18.282;2023-11-21T11:17:13;8.180000;;8.040000;7.720000;;;;;;
43196;SPS30;28816;49.852;18.282;2023-11-21T11:22:15;8.990000;;9.000000;8.470000;;;;;;
43196;SPS30;28816;49.852;18.282;2023-11-21T11:27:25;6.770000;;6.750000;6.410000;;;;;;
43196;SPS30;28816;49.852;18.282;2023-11-21T11:32:34;6.460000;;6.460000;6.070000;;;;;;
43196;SPS30;28816;49.852;18.282;2023-11-21T11:37:40;7.110000;;7.190000;6.650000;;;;;;
43196;SPS30;28816;49.852;18.282;2023-11-21T11:42:42;6.830000;;6.770000;6.460000;;;;;;
43196;SPS30;28816;49.852;18.282;2023-11-21T11:47:56;7.500000;;7.560000;6.960000;;;;;;
43196;SPS30;28816;49.852;18.282;2023-11-21T11:52:59;7.250000;;7.210000;6.780000;;;;;;
43196;SPS30;28816;49.852;18.282;2023-11-21T11:58:17;8.350000;;8.360000;7.900000;;;;;;
43196;SPS30;28816;49.852;18.282;2023-11-21T12:03:19;8.900000;;8.900000;8.350000;;;;;;
43196;SPS30;28816;49.852;18.282;2023-11-21T12:08:21;8.600000;;8.600000;8.120000;;;;;;
43196;SPS30;28816;49.852;18.282;2023-11-21T12:13:23;8.810000;;8.740000;8.390000;;;;;;
43196;SPS30;28816;49.852;18.282;2023-11-21T12:18:28;9.030000;;9.050000;8.530000;;;;;;
43196;SPS30;28816;49.852;18.282;2023-11-21T12:23:30;9.880000;;9.940000;9.300000;;;;;;
43196;SPS30;28816;49.852;18.282;2023-11-21T12:28:32;8.640000;;8.570000;7.990000;;;;;;
43196;SPS30;28816;49.852;18.282;2023-11-21T12:33:33;8.750000;;8.790000;8.210000;;;;;;
43196;SPS30;28816;49.852;18.282;2023-11-21T12:38:35;10.290000;;10.240000;9.710000;;;;;;
43196;SPS30;28816;49.852;18.282;2023-11-21T12:43:38;9.400000;;9.380000;8.900000;;;;;;
43196;SPS30;28816;49.852;18.282;2023-11-21T12:48:40;9.750000;;9.680000;9.250000;;;;;;
43196;SPS30;28816;49.852;18.282;2023-11-21T12:53:43;11.150000;;11.110000;10.530000;;;;;;
43196;SPS30;28816;49.852;18.282;2023-11-21T12:58:45;10.920000;;10.830000;10.220000;;;;;;
43196;SPS30;28816;49.852;18.282;2023-11-21T13:03:47;13.460000;;13.340000;12.540000;;;;;;
43196;SPS30;28816;49.852;18.282;2023-11-21T13:08:50;13.810000;;13.750000;12.930000;;;;;;
43196;SPS30;28816;49.852;18.282;2023-11-21T13:13:54;12.350000;;12.360000;11.710000;;;;;;
43196;SPS30;28816;49.852;18.282;2023-11-21T13:18:56;12.890000;;12.930000;12.030000;;;;;;
43196;SPS30;28816;49.852;18.282;2023-11-21T13:23:58;13.590000;;13.480000;12.760000;;;;;;
43196;SPS30;28816;49.852;18.282;2023-11-21T13:29:00;12.340000;;12.310000;11.620000;;;;;;
43196;SPS30;28816;49.852;18.282;2023-11-21T13:34:02;11.730000;;11.690000;11.130000;;;;;;
43196;SPS30;28816;49.852;18.282;2023-11-21T13:39:04;10.860000;;10.840000;10.240000;;;;;;
43196;SPS30;28816;49.852;18.282;2023-11-21T13:44:06;10.440000;;10.490000;9.830000;;;;;;
43196;SPS30;28816;49.852;18.282;2023-11-21T13:49:08;10.380000;;10.390000;9.540000;;;;;;
43196;SPS30;28816;49.852;18.282;2023-11-21T13:54:10;11.110000;;11.090000;10.440000;;;;;;
43196;SPS30;28816;49.852;18.282;2023-11-21T13:59:12;11.120000;;11.070000;10.320000;;;;;;
43196;SPS30;28816;49.852;18.282;2023-11-21T14:04:14;12.020000;;11.970000;11.160000;;;;;;
43196;SPS30;28816;49.852;18.282;2023-11-21T14:09:15;11.200000;;11.160000;10.540000;;;;;;
43196;SPS30;28816;49.852;18.282;2023-11-21T14:14:18;12.440000;;12.450000;11.780000;;;;;;
43196;SPS30;28816;49.852;18.282;2023-11-21T14:19:21;11.300000;;11.140000;10.640000;;;;;;
43196;SPS30;28816;49.852;18.282;2023-11-21T14:24:23;10.690000;;10.690000;9.990000;;;;;;
43196;SPS30;28816;49.852;18.282;2023-11-21T14:29:25;11.100000;;11.060000;10.520000;;;;;;
43196;SPS30;28816;49.852;18.282;2023-11-21T14:34:26;11.400000;;11.470000;10.680000;;;;;;
43196;SPS30;28816;49.852;18.282;2023-11-21T14:39:29;10.550000;;10.470000;10.090000;;;;;;
43196;SPS30;28816;49.852;18.282;2023-11-21T14:44:31;12.410000;;12.410000;11.710000;;;;;;
43196;SPS30;28816;49.852;18.282;2023-11-21T14:49:32;16.890000;;16.860000;15.460000;;;;;;
43196;SPS30;28816;49.852;18.282;2023-11-21T14:54:34;13.940000;;13.840000;13.020000;;;;;;
43196;SPS30;28816;49.852;18.282;2023-11-21T14:59:36;12.090000;;12.170000;11.240000;;;;;;
43196;SPS30;28816;49.852;18.282;2023-11-21T15:04:43;13.510000;;13.570000;12.770000;;;;;;
43196;SPS30;28816;49.852;18.282;2023-11-21T15:09:45;13.360000;;13.510000;12.510000;;;;;;
43196;SPS30;28816;49.852;18.282;2023-11-21T15:14:47;14.720000;;14.510000;13.810000;;;;;;
43196;SPS30;28816;49.852;18.282;2023-11-21T15:19:51;13.850000;;13.860000;13.100000;;;;;;
43196;SPS30;28816;49.852;18.282;2023-11-21T15:24:54;12.180000;;11.970000;11.280000;;;;;;
43196;SPS30;28816;49.852;18.282;2023-11-21T15:29:56;12.320000;;12.240000;11.700000;;;;;;
43196;SPS30;28816;49.852;18.282;2023-11-21T15:34:58;10.390000;;10.360000;9.720000;;;;;;
43196;SPS30;28816;49.852;18.282;2023-11-21T15:40:00;12.340000;;12.270000;11.680000;;;;;;
43196;SPS30;28816;49.852;18.282;2023-11-21T15:45:02;11.700000;;11.620000;11.000000;;;;;;
43196;SPS30;28816;49.852;18.282;2023-11-21T15:50:05;13.970000;;13.910000;13.220000;;;;;;
43196;SPS30;28816;49.852;18.282;2023-11-21T15:55:08;15.420000;;15.250000;14.200000;;;;;;
43196;SPS30;28816;49.852;18.282;2023-11-21T16:00:10;15.430000;;15.450000;14.560000;;;;;;
43196;SPS30;28816;49.852;18.282;2023-11-21T16:05:13;17.430000;;17.410000;16.430000;;;;;;
43196;SPS30;28816;49.852;18.282;2023-11-21T16:10:15;16.180000;;16.120000;15.300000;;;;;;
43196;SPS30;28816;49.852;18.282;2023-11-21T16:15:17;16.980000;;16.790000;15.680000;;;;;;
43196;SPS30;28816;49.852;18.282;2023-11-21T16:20:19;17.660000;;17.550000;16.430000;;;;;;
43196;SPS30;28816;49.852;18.282;2023-11-21T16:25:21;18.930000;;18.780000;17.350000;;;;;;
43196;SPS30;28816;49.852;18.282;2023-11-21T16:30:23;14.080000;;14.190000;13.240000;;;;;;
43196;SPS30;28816;49.852;18.282;2023-11-21T16:35:25;13.380000;;13.370000;12.490000;;;;;;
43196;SPS30;28816;49.852;18.282;2023-11-21T16:40:27;14.960000;;14.930000;14.070000;;;;;;
43196;SPS30;28816;49.852;18.282;2023-11-21T16:45:28;14.170000;;14.040000;13.310000;;;;;;
43196;SPS30;28816;49.852;18.282;2023-11-21T16:50:31;12.560000;;12.440000;11.710000;;;;;;
43196;SPS30;28816;49.852;18.282;2023-11-21T16:55:33;11.200000;;11.190000;10.600000;;;;;;
43196;SPS30;28816;49.852;18.282;2023-11-21T17:00:34;11.740000;;11.710000;11.130000;;;;;;
43196;SPS30;28816;49.852;18.282;2023-11-21T17:05:36;11.020000;;11.010000;10.420000;;;;;;
43196;SPS30;28816;49.852;18.282;2023-11-21T17:10:38;12.580000;;12.660000;11.730000;;;;;;
43196;SPS30;28816;49.852;18.282;2023-11-21T17:15:40;12.120000;;11.990000;11.540000;;;;;;
43196;SPS30;28816;49.852;18.282;2023-11-21T17:20:42;11.810000;;11.760000;10.960000;;;;;;
43196;SPS30;28816;49.852;18.282;2023-11-21T17:25:45;14.850000;;14.870000;13.630000;;;;;;
43196;SPS30;28816;49.852;18.282;2023-11-21T17:30:47;13.500000;;13.300000;12.590000;;;;;;
43196;SPS30;28816;49.852;18.282;2023-11-21T17:35:49;13.390000;;13.190000;12.480000;;;;;;
43196;SPS30;28816;49.852;18.282;2023-11-21T17:40:51;13.990000;;13.770000;12.980000;;;;;;
43196;SPS30;28816;49.852;18.282;2023-11-21T17:45:53;14.820000;;14.740000;13.950000;;;;;;
43196;SPS30;28816;49.852;18.282;2023-11-21T17:50:55;15.630000;;15.380000;14.330000;;;;;;
43196;SPS30;28816;49.852;18.282;2023-11-21T17:55:58;13.160000;;13.080000;12.240000;;;;;;
43196;SPS30;28816;49.852;18.282;2023-11-21T18:01:00;11.480000;;11.410000;10.690000;;;;;;
43196;SPS30;28816;49.852;18.282;2023-11-21T18:06:02;12.330000;;12.260000;11.530000;;;;;;
43196;SPS30;28816;49.852;18.282;2023-11-21T18:11:06;11.580000;;11.460000;10.790000;;;;;;
43196;SPS30;28816;49.852;18.282;2023-11-21T18:16:08;13.560000;;13.290000;12.500000;;;;;;
43196;SPS30;28816;49.852;18.282;2023-11-21T18:21:10;17.710000;;17.620000;16.420000;;;;;;
43196;SPS30;28816;49.852;18.282;2023-11-21T18:26:12;21.310000;;21.020000;19.690000;;;;;;
43196;SPS30;28816;49.852;18.282;2023-11-21T18:31:16;24.610000;;24.170000;22.440000;;;;;;
43196;SPS30;28816;49.852;18.282;2023-11-21T18:36:19;25.350000;;24.880000;23.070000;;;;;;
43196;SPS30;28816;49.852;18.282;2023-11-21T18:41:21;27.780000;;27.340000;25.520000;;;;;;
43196;SPS30;28816;49.852;18.282;2023-11-21T18:46:23;25.070000;;24.690000;22.980000;;;;;;
43196;SPS30;28816;49.852;18.282;2023-11-21T18:51:25;22.280000;;21.850000;20.410000;;;;;;
43196;SPS30;28816;49.852;18.282;2023-11-21T18:56:27;18.730000;;18.590000;17.440000;;;;;;
43196;SPS30;28816;49.852;18.282;2023-11-21T19:01:29;16.400000;;16.250000;15.400000;;;;;;
43196;SPS30;28816;49.852;18.282;2023-11-21T19:06:31;17.520000;;17.460000;16.340000;;;;;;
43196;SPS30;28816;49.852;18.282;2023-11-21T19:11:33;16.210000;;15.890000;14.840000;;;;;;
43196;SPS30;28816;49.852;18.282;2023-11-21T19:16:35;19.880000;;19.690000;18.480000;;;;;;
43196;SPS30;28816;49.852;18.282;2023-11-21T19:21:37;18.520000;;18.300000;16.990000;;;;;;
43196;SPS30;28816;49.852;18.282;2023-11-21T19:26:39;16.360000;;16.150000;15.200000;;;;;;
43196;SPS30;28816;49.852;18.282;2023-11-21T19:31:41;19.600000;;19.470000;17.960000;;;;;;
43196;SPS30;28816;49.852;18.282;2023-11-21T19:36:43;17.370000;;17.180000;16.180000;;;;;;
43196;SPS30;28816;49.852;18.282;2023-11-21T19:41:45;15.500000;;15.370000;14.530000;;;;;;
43196;SPS30;28816;49.852;18.282;2023-11-21T19:46:48;13.130000;;13.040000;12.290000;;;;;;
43196;SPS30;28816;49.852;18.282;2023-11-21T19:51:51;12.620000;;12.530000;11.990000;;;;;;
43196;SPS30;28816;49.852;18.282;2023-11-21T19:56:52;12.230000;;12.140000;11.350000;;;;;;
43196;SPS30;28816;49.852;18.282;2023-11-21T20:01:54;13.380000;;13.090000;12.350000;;;;;;
43196;SPS30;28816;49.852;18.282;2023-11-21T20:06:57;12.500000;;12.530000;11.730000;;;;;;
43196;SPS30;28816;49.852;18.282;2023-11-21T20:11:59;12.550000;;12.550000;11.570000;;;;;;
43196;SPS30;28816;49.852;18.282;2023-11-21T20:17:01;13.480000;;13.370000;12.530000;;;;;;
43196;SPS30;28816;49.852;18.282;2023-11-21T20:22:03;14.280000;;14.330000;13.250000;;;;;;
43196;SPS30;28816;49.852;18.282;2023-11-21T20:27:05;14.970000;;14.650000;14.050000;;;;;;
43196;SPS30;28816;49.852;18.282;2023-11-21T20:32:07;11.100000;;11.080000;10.380000;;;;;;
43196;SPS30;28816;49.852;18.282;2023-11-21T20:37:08;9.710000;;9.660000;9.050000;;;;;;
43196;SPS30;28816;49.852;18.282;2023-11-21T20:42:10;10.060000;;10.000000;9.420000;;;;;;
43196;SPS30;28816;49.852;18.282;2023-11-21T20:47:13;9.970000;;10.000000;9.420000;;;;;;
43196;SPS30;28816;49.852;18.282;2023-11-21T20:52:15;10.060000;;10.160000;9.410000;;;;;;
43196;SPS30;28816;49.852;18.282;2023-11-21T20:57:17;10.580000;;10.450000;9.990000;;;;;;
43196;SPS30;28816;49.852;18.282;2023-11-21T21:02:19;12.230000;;12.220000;11.610000;;;;;;
43196;SPS30;28816;49.852;18.282;2023-11-21T21:07:21;20.160000;;19.910000;18.260000;;;;;;
43196;SPS30;28816;49.852;18.282;2023-11-21T21:12:23;44.960000;;41.240000;35.220000;;;;;;
43196;SPS30;28816;49.852;18.282;2023-11-21T21:17:25;14.100000;;14.010000;13.200000;;;;;;
43196;SPS30;28816;49.852;18.282;2023-11-21T21:22:27;12.680000;;12.700000;11.810000;;;;;;
43196;SPS30;28816;49.852;18.282;2023-11-21T21:27:29;14.790000;;14.570000;13.800000;;;;;;
43196;SPS30;28816;49.852;18.282;2023-11-21T21:32:31;14.040000;;14.040000;13.170000;;;;;;
43196;SPS30;28816;49.852;18.282;2023-11-21T21:37:33;12.580000;;12.550000;11.650000;;;;;;
43196;SPS30;28816;49.852;18.282;2023-11-21T21:42:35;12.240000;;12.180000;11.380000;;;;;;
43196;SPS30;28816;49.852;18.282;2023-11-21T21:47:37;11.660000;;11.480000;10.960000;;;;;;
43196;SPS30;28816;49.852;18.282;2023-11-21T21:52:39;10.900000;;10.840000;10.080000;;;;;;
43196;SPS30;28816;49.852;18.282;2023-11-21T21:57:42;11.400000;;11.370000;10.710000;;;;;;
43196;SPS30;28816;49.852;18.282;2023-11-21T22:02:44;10.540000;;10.420000;9.710000;;;;;;
43196;SPS30;28816;49.852;18.282;2023-11-21T22:07:47;10.380000;;10.370000;9.780000;;;;;;
43196;SPS30;28816;49.852;18.282;2023-11-21T22:12:49;11.360000;;11.300000;10.530000;;;;;;
43196;SPS30;28816;49.852;18.282;2023-11-21T22:17:51;12.560000;;12.410000;11.650000;;;;;;
43196;SPS30;28816;49.852;18.282;2023-11-21T22:22:53;9.940000;;9.960000;9.200000;;;;;;
43196;SPS30;28816;49.852;18.282;2023-11-21T22:27:55;10.560000;;10.410000;9.770000;;;;;;
43196;SPS30;28816;49.852;18.282;2023-11-21T22:32:57;9.230000;;9.080000;8.600000;;;;;;
43196;SPS30;28816;49.852;18.282;2023-11-21T22:37:59;8.930000;;8.830000;8.500000;;;;;;
43196;SPS30;28816;49.852;18.282;2023-11-21T22:43:02;9.970000;;9.830000;9.220000;;;;;;
43196;SPS30;28816;49.852;18.282;2023-11-21T22:48:04;9.870000;;9.850000;9.180000;;;;;;
43196;SPS30;28816;49.852;18.282;2023-11-21T22:53:06;9.550000;;9.540000;9.020000;;;;;;